Time;durP1;ratioP1;P1;durP2;ratioP2;P2;SDS_P1;SDS_P2;PMS_P1;PMS_P2;Temp;Humidity;BMP_temperature;BMP_pressure;BME280_temperature;BME280_humidity;BME280_pressure;Samples;Min_cycle;Max_cycle;Signal;HPM_P1;HPM_P2
2022/04/28 00:00:43;;;;;;;4.50;2.10;;;14.50;99.90;;;;;;1896308;75;21101;-79
2022/04/28 00:03:54;;;;;;;4.12;2.20;;;14.30;99.90;;;;;;1884996;76;21169;-78
2022/04/28 00:09:24;;;;;;;3.25;2.02;;;14.10;99.90;;;;;;1976424;72;22199;-78
2022/04/28 00:12:34;;;;;;;3.77;2.25;;;14.10;99.90;;;;;;1917814;75;21086;-78
2022/04/28 00:15:46;;;;;;;5.12;2.10;;;14.10;99.90;;;;;;1935955;73;21577;-78
2022/04/28 00:18:39;;;;;;;3.70;1.95;;;14.10;99.90;;;;;;1931484;73;21079;-78
2022/04/28 00:24:27;;;;;;;2.20;2.00;;;14.00;99.90;;;;;;1941819;72;22350;-78
2022/04/28 00:27:38;;;;;;;3.27;2.30;;;14.00;99.90;;;;;;1906932;75;21106;-80
2022/04/28 00:30:48;;;;;;;2.20;2.00;;;14.00;99.90;;;;;;1903274;75;21160;-78
2022/04/28 00:33:40;;;;;;;3.98;2.67;;;14.10;99.90;;;;;;1924326;74;21555;-79
2022/04/28 00:36:51;;;;;;;2.98;2.47;;;14.10;99.90;;;;;;1896615;75;21129;-78
2022/04/28 00:39:43;;;;;;;3.12;2.30;;;14.00;99.90;;;;;;1896617;75;21124;-78
2022/04/28 00:42:34;;;;;;;3.58;2.02;;;14.00;99.90;;;;;;1903753;75;21058;-78
2022/04/28 00:45:26;;;;;;;3.22;2.30;;;14.00;99.90;;;;;;1893738;75;21047;-78
2022/04/28 00:54:27;;;;;;;2.67;2.22;;;13.80;99.90;;;;;;1946784;72;22712;-78
2022/04/28 00:57:37;;;;;;;3.20;2.10;;;13.80;99.90;;;;;;1931039;73;21146;-78
2022/04/28 01:00:47;;;;;;;2.50;2.30;;;13.70;99.90;;;;;;1922930;73;21086;-79
2022/04/28 01:03:41;;;;;;;3.12;2.25;;;13.80;99.90;;;;;;1917839;75;21058;-79
2022/04/28 01:06:51;;;;;;;2.87;2.10;;;13.70;99.90;;;;;;1917548;75;21608;-78
2022/04/28 01:12:24;;;;;;;3.22;2.37;;;13.60;99.90;;;;;;1949656;72;22168;-78
2022/04/28 01:15:44;;;;;;;4.22;2.90;;;13.60;99.90;;;;;;1888379;75;21154;-78
2022/04/28 01:18:58;;;;;;;2.62;2.37;;;13.50;99.90;;;;;;1889552;75;21048;-78
2022/04/28 01:21:53;;;;;;;3.35;2.70;;;13.50;99.90;;;;;;1895431;75;21517;-78
2022/04/28 01:25:08;;;;;;;2.62;2.27;;;13.50;99.90;;;;;;1885026;75;21119;-81
2022/04/28 01:28:00;;;;;;;4.42;2.60;;;13.40;99.90;;;;;;1894730;75;21129;-78
2022/04/28 01:30:52;;;;;;;5.35;2.40;;;13.40;99.90;;;;;;1898126;75;21095;-78
2022/04/28 01:33:44;;;;;;;2.67;2.40;;;13.30;99.90;;;;;;1905089;75;21059;-78
2022/04/28 01:36:37;;;;;;;4.75;2.30;;;13.40;99.90;;;;;;1889158;75;21063;-78
2022/04/28 01:39:28;;;;;;;4.15;2.58;;;13.30;99.90;;;;;;1884003;75;21113;-78
2022/04/28 01:42:20;;;;;;;2.40;2.20;;;13.20;99.90;;;;;;1894918;75;21129;-78
2022/04/28 01:45:13;;;;;;;3.35;2.42;;;13.20;99.90;;;;;;1893791;75;21040;-78
2022/04/28 01:48:09;;;;;;;3.15;2.27;;;13.20;99.90;;;;;;1886804;75;21102;-80
2022/04/28 01:57:42;;;;;;;2.52;2.33;;;13.20;99.90;;;;;;1899180;75;21129;-79
2022/04/28 02:00:51;;;;;;;3.65;2.60;;;13.10;99.90;;;;;;1873458;75;21067;-79
2022/04/28 02:03:43;;;;;;;4.45;2.80;;;13.10;99.90;;;;;;1883597;75;21094;-79
2022/04/28 02:06:35;;;;;;;6.17;3.08;;;13.10;99.90;;;;;;1883702;75;21126;-78
2022/04/28 02:09:28;;;;;;;5.72;3.22;;;13.10;99.90;;;;;;1905160;75;21039;-79
2022/04/28 02:12:20;;;;;;;5.60;2.52;;;13.10;99.90;;;;;;1890290;75;21168;-78
2022/04/28 02:15:14;;;;;;;3.33;2.92;;;13.00;99.90;;;;;;1882871;75;21217;-78
2022/04/28 02:21:09;;;;;;;3.65;2.80;;;12.90;99.90;;;;;;1944909;72;22237;-78
2022/04/28 02:24:19;;;;;;;3.83;3.00;;;12.90;99.90;;;;;;1917876;75;21113;-80
2022/04/28 02:27:30;;;;;;;3.45;2.83;;;12.90;99.90;;;;;;1920418;73;21047;-79
2022/04/28 02:30:21;;;;;;;2.98;2.70;;;12.90;99.90;;;;;;1931814;73;21054;-79
2022/04/28 02:33:31;;;;;;;4.85;2.62;;;12.90;99.90;;;;;;1936334;73;21054;-80
2022/04/28 02:36:24;;;;;;;7.37;3.02;;;12.90;99.90;;;;;;1941620;73;21187;-79
2022/04/28 02:39:18;;;;;;;5.00;3.00;;;12.90;99.90;;;;;;1917555;75;21077;-79
2022/04/28 02:42:11;;;;;;;3.33;2.90;;;12.90;99.90;;;;;;1923200;73;21059;-78
2022/04/28 02:45:03;;;;;;;5.00;2.98;;;12.80;99.90;;;;;;1917680;75;21062;-80
2022/04/28 02:47:55;;;;;;;4.80;2.67;;;12.70;99.90;;;;;;1888056;75;21110;-80
2022/04/28 02:50:47;;;;;;;3.08;2.77;;;12.70;99.90;;;;;;1927675;73;21102;-79
2022/04/28 02:53:40;;;;;;;3.45;2.90;;;12.60;99.90;;;;;;1923802;73;21067;-78
2022/04/28 02:56:31;;;;;;;3.98;2.77;;;12.60;99.90;;;;;;1943628;73;21149;-78
2022/04/28 02:59:24;;;;;;;3.25;2.60;;;12.60;99.90;;;;;;1934394;73;21504;-78
2022/04/28 03:02:15;;;;;;;3.95;2.80;;;12.60;99.90;;;;;;1917891;75;21196;-78
2022/04/28 03:05:08;;;;;;;4.03;2.70;;;12.60;99.90;;;;;;1923658;73;21087;-78
2022/04/28 03:13:48;;;;;;;4.40;2.72;;;12.60;99.90;;;;;;1958435;72;22190;-78
2022/04/28 03:16:58;;;;;;;3.75;2.65;;;12.60;99.90;;;;;;1891236;75;21062;-79
2022/04/28 03:22:48;;;;;;;4.85;2.92;;;12.50;99.90;;;;;;1971564;72;22302;-78
2022/04/28 03:25:58;;;;;;;4.15;2.77;;;12.50;99.90;;;;;;1923276;74;21089;-78
2022/04/28 03:29:07;;;;;;;6.97;3.27;;;12.40;99.90;;;;;;1917632;75;21653;-80
2022/04/28 03:31:59;;;;;;;4.10;2.80;;;12.40;99.90;;;;;;1917473;73;21099;-79
2022/04/28 03:35:11;;;;;;;4.10;2.90;;;12.40;99.90;;;;;;1917680;75;21200;-78
2022/04/28 03:38:08;;;;;;;5.03;3.22;;;12.40;99.90;;;;;;1917703;75;21101;-79
2022/04/28 03:41:00;;;;;;;4.17;3.45;;;12.30;99.90;;;;;;1922835;73;21042;-78
2022/04/28 03:43:52;;;;;;;3.30;3.00;;;12.20;99.90;;;;;;1917728;75;21187;-78
2022/04/28 03:49:23;;;;;;;6.12;3.90;;;12.10;99.90;;;;;;1976530;72;22107;-78
2022/04/28 03:52:34;;;;;;;7.53;4.42;;;12.10;99.90;;;;;;1930579;73;21098;-78
2022/04/28 03:55:43;;;;;;;4.62;3.50;;;12.00;99.90;;;;;;1917753;75;21495;-79
2022/04/28 03:58:34;;;;;;;5.47;3.33;;;12.00;99.90;;;;;;1917746;75;21117;-79
2022/04/28 04:01:44;;;;;;;6.20;4.00;;;12.00;99.90;;;;;;1942530;73;21155;-79
2022/04/28 04:04:39;;;;;;;5.35;3.75;;;12.00;99.90;;;;;;1940508;73;21169;-79
2022/04/28 04:07:33;;;;;;;6.45;3.98;;;12.00;99.90;;;;;;1917836;75;21121;-79
2022/04/28 04:13:05;;;;;;;5.45;3.75;;;12.00;99.90;;;;;;1948040;72;22135;-78
2022/04/28 04:16:23;;;;;;;4.35;3.22;;;12.00;99.90;;;;;;1915924;75;21169;-78
2022/04/28 04:19:38;;;;;;;4.58;2.67;;;11.90;99.90;;;;;;1942720;73;21066;-79
2022/04/28 04:22:29;;;;;;;4.58;2.92;;;11.90;99.90;;;;;;1917769;75;21051;-78
2022/04/28 04:28:18;;;;;;;4.20;2.98;;;11.90;99.90;;;;;;1958316;72;22210;-78
2022/04/28 04:35:29;;;;;;;4.95;2.95;;;11.70;99.90;;;;;;1895040;75;21088;-80
2022/04/28 04:38:23;;;;;;;3.90;3.15;;;11.80;99.90;;;;;;1906164;75;21039;-78
2022/04/28 04:41:33;;;;;;;5.60;3.33;;;11.70;99.90;;;;;;1884940;76;21058;-80
2022/04/28 04:44:25;;;;;;;4.95;3.17;;;11.80;99.90;;;;;;1895693;75;21047;-79
2022/04/28 04:47:18;;;;;;;6.65;3.15;;;11.80;99.90;;;;;;1912654;75;21083;-79
2022/04/28 04:50:21;;;;;;;3.70;2.70;;;11.80;99.90;;;;;;1895554;75;21103;-80
2022/04/28 04:53:23;;;;;;;3.70;3.35;;;11.80;99.90;;;;;;1895611;75;21207;-79
2022/04/28 04:56:17;;;;;;;4.78;3.30;;;11.80;99.90;;;;;;1901893;75;21052;-79
2022/04/28 04:59:09;;;;;;;4.08;3.22;;;11.80;99.90;;;;;;1916252;75;21505;-80
2022/04/28 05:02:00;;;;;;;3.62;3.08;;;11.90;99.90;;;;;;1895745;75;21063;-79
2022/04/28 05:05:11;;;;;;;6.17;3.50;;;11.90;99.90;;;;;;1889532;75;21152;-80
2022/04/28 05:08:20;;;;;;;4.78;3.22;;;11.90;99.90;;;;;;1911780;75;21230;-79
2022/04/28 05:11:21;;;;;;;8.38;3.15;;;11.90;99.90;;;;;;1895488;75;21070;-80
2022/04/28 05:14:26;;;;;;;5.20;3.33;;;11.90;99.90;;;;;;1875537;74;21063;-79
2022/04/28 05:19:57;;;;;;;4.67;2.87;;;11.90;99.90;;;;;;1967706;72;22150;-78
2022/04/28 05:23:25;;;;;;;5.67;3.60;;;12.00;99.90;;;;;;1951427;73;21053;-78
2022/04/28 05:26:52;;;;;;;;;;;12.00;99.90;;;;;;1939590;73;21062;-81
2022/04/28 05:32:27;;;;;;;3.70;3.10;;;12.10;99.90;;;;;;1944035;72;22309;-77
2022/04/28 05:35:43;;;;;;;6.22;3.42;;;12.10;99.90;;;;;;1931495;73;21670;-79
2022/04/28 05:38:53;;;;;;;4.83;3.40;;;12.10;99.90;;;;;;1940108;73;21104;-77
2022/04/28 05:41:45;;;;;;;4.35;3.45;;;12.10;99.90;;;;;;1936952;73;21120;-78
2022/04/28 05:47:34;;;;;;;5.35;3.20;;;12.20;99.90;;;;;;1943108;72;22215;-78
2022/04/28 05:50:46;;;;;;;5.62;3.10;;;12.30;99.90;;;;;;1915963;75;21058;-81
2022/04/28 05:53:57;;;;;;;3.75;2.85;;;12.30;99.90;;;;;;1917751;75;21059;-79
2022/04/28 05:56:50;;;;;;;4.92;3.20;;;12.40;99.90;;;;;;1917606;75;21051;-79
2022/04/28 06:00:00;;;;;;;5.90;3.12;;;12.50;99.90;;;;;;1917804;75;21138;-79
2022/04/28 06:03:03;;;;;;;4.22;3.60;;;12.60;99.90;;;;;;1917678;75;21114;-85
2022/04/28 06:05:59;;;;;;;6.28;3.80;;;12.80;99.90;;;;;;1917639;75;21063;-80
2022/04/28 06:08:51;;;;;;;4.47;3.40;;;12.80;99.90;;;;;;1898065;75;21133;-81
2022/04/28 06:11:46;;;;;;;6.72;4.42;;;12.90;99.90;;;;;;1898127;75;21103;-77
2022/04/28 06:14:38;;;;;;;7.90;4.78;;;12.90;99.90;;;;;;1917272;75;21054;-78
2022/04/28 06:17:31;;;;;;;5.03;3.77;;;12.90;99.90;;;;;;1908374;75;21051;-79
2022/04/28 06:23:01;;;;;;;4.45;3.37;;;13.20;99.90;;;;;;1928154;72;22170;-78
2022/04/28 06:26:13;;;;;;;3.80;3.17;;;13.20;99.90;;;;;;1898613;75;21109;-77
2022/04/28 06:29:23;;;;;;;5.03;3.25;;;13.30;99.90;;;;;;1911036;75;21169;-78
2022/04/28 06:32:17;;;;;;;5.60;3.08;;;13.30;99.90;;;;;;1899491;75;21118;-78
2022/04/28 06:35:46;;;;;;;5.30;3.42;;;13.40;99.90;;;;;;1893597;75;21035;-78
2022/04/28 06:38:41;;;;;;;5.83;3.27;;;13.30;99.90;;;;;;1907782;75;21126;-78
2022/04/28 06:41:34;;;;;;;4.12;3.20;;;13.30;99.90;;;;;;1888926;75;21051;-78
2022/04/28 06:44:27;;;;;;;5.17;3.10;;;13.40;99.90;;;;;;1921764;74;21174;-77
2022/04/28 06:47:21;;;;;;;4.75;3.72;;;13.50;99.90;;;;;;1906848;75;21608;-78
2022/04/28 06:53:19;;;;;;;6.42;5.05;;;13.50;99.90;;;;;;1954286;72;22063;-81
2022/04/28 06:59:13;;;;;;;3.98;3.10;;;13.60;99.90;;;;;;1957723;72;22171;-80
2022/04/28 07:02:25;;;;;;;4.83;3.27;;;13.70;99.90;;;;;;1902677;75;21063;-78
2022/04/28 07:08:16;;;;;;;8.13;3.10;;;13.70;99.90;;;;;;1954875;72;22282;-77
2022/04/28 07:11:28;;;;;;;5.72;3.50;;;13.80;99.90;;;;;;1918457;73;21099;-78
2022/04/28 07:14:40;;;;;;;5.08;3.65;;;13.90;99.90;;;;;;1943387;73;21118;-78
2022/04/28 07:17:49;;;;;;;4.58;3.37;;;13.90;99.90;;;;;;1928095;73;21521;-78
2022/04/28 07:21:02;;;;;;;6.10;3.80;;;13.90;99.90;;;;;;1929518;73;21051;-80
2022/04/28 07:23:55;;;;;;;4.37;2.90;;;14.00;99.90;;;;;;1936571;73;21055;-78
2022/04/28 07:29:37;;;;;;;4.15;3.20;;;14.20;99.90;;;;;;1949861;72;22126;-77
2022/04/28 07:32:53;;;;;;;8.10;3.70;;;14.20;99.90;;;;;;1914209;75;21104;-78
2022/04/28 07:49:09;;;;;;;7.00;4.03;;;14.40;99.90;;;;;;1909053;74;22559;-77
2022/04/28 07:54:57;;;;;;;7.35;4.20;;;14.80;99.90;;;;;;1952614;72;22118;-78
2022/04/28 07:58:07;;;;;;;5.17;3.95;;;14.90;99.90;;;;;;1896475;75;21059;-80
2022/04/28 08:03:57;;;;;;;8.38;4.75;;;15.10;99.90;;;;;;1958326;72;22222;-78
2022/04/28 08:07:07;;;;;;;7.40;4.50;;;15.10;99.90;;;;;;1913381;75;21117;-80
2022/04/28 08:12:59;;;;;;;7.50;4.95;;;15.40;99.90;;;;;;1944356;72;22116;-78
2022/04/28 08:16:14;;;;;;;6.70;4.10;;;15.40;99.90;;;;;;1881015;74;21086;-80
2022/04/28 08:19:27;;;;;;;10.93;4.08;;;15.40;99.90;;;;;;1883501;75;21158;-78
2022/04/28 08:22:29;;;;;;;6.42;3.83;;;15.50;99.90;;;;;;1892903;75;21496;-78
2022/04/28 08:28:21;;;;;;;7.92;4.03;;;15.80;99.90;;;;;;1956001;72;22238;-78
2022/04/28 08:31:31;;;;;;;7.40;4.20;;;15.90;99.90;;;;;;1907497;75;21595;-78
2022/04/28 08:34:42;;;;;;;7.70;4.00;;;15.80;99.90;;;;;;1896297;75;21099;-79
2022/04/28 08:37:36;;;;;;;6.70;3.58;;;15.90;99.90;;;;;;1913158;75;21107;-78
2022/04/28 08:43:24;;;;;;;4.87;2.65;;;16.00;99.90;;;;;;1954536;72;22683;-79
2022/04/28 08:49:19;;;;;;;6.97;3.47;;;16.30;99.90;;;;;;1951471;72;22325;-80
2022/04/28 08:52:30;;;;;;;7.78;4.05;;;16.30;99.90;;;;;;1884687;75;21190;-78
2022/04/28 08:55:43;;;;;;;9.70;4.10;;;16.30;99.90;;;;;;1897294;75;21059;-79
2022/04/28 08:58:35;;;;;;;5.80;3.58;;;16.40;99.90;;;;;;1912557;75;21113;-79
2022/04/28 09:01:46;;;;;;;8.90;4.95;;;16.40;99.90;;;;;;1911985;75;21158;-79
2022/04/28 09:07:44;;;;;;;8.38;3.58;;;16.70;99.90;;;;;;1949376;72;22333;-78
2022/04/28 09:11:19;;;;;;;5.45;3.58;;;16.80;99.90;;;;;;1919872;73;21112;-79
2022/04/28 09:14:43;;;;;;;8.00;3.40;;;16.90;99.90;;;;;;1924783;73;21167;-78
2022/04/28 09:17:42;;;;;;;4.28;2.98;;;17.00;99.90;;;;;;1917590;75;21125;-79
2022/04/28 09:20:53;;;;;;;3.77;2.90;;;17.10;99.90;;;;;;1894247;75;21126;-79
2022/04/28 09:23:45;;;;;;;4.30;3.15;;;17.10;99.90;;;;;;1926195;74;21050;-78
2022/04/28 09:26:39;;;;;;;6.15;3.33;;;17.20;99.90;;;;;;1917532;75;21051;-78
2022/04/28 09:29:36;;;;;;;3.95;3.45;;;17.30;99.90;;;;;;1917463;75;21123;-78
2022/04/28 09:32:29;;;;;;;5.47;3.33;;;17.40;99.90;;;;;;1920872;73;21273;-79
2022/04/28 09:38:02;;;;;;;5.08;3.25;;;17.60;99.90;;;;;;1951174;72;22578;-80
2022/04/28 09:43:56;;;;;;;5.12;3.42;;;17.80;99.90;;;;;;1949046;72;22292;-80
2022/04/28 09:47:10;;;;;;;5.28;3.20;;;17.80;99.90;;;;;;1906969;75;21147;-80
2022/04/28 09:53:03;;;;;;;6.53;3.45;;;18.00;99.90;;;;;;1932674;72;22727;-78
2022/04/28 09:56:34;;;;;;;7.00;2.85;;;18.20;99.90;;;;;;1874021;75;21524;-78
2022/04/28 09:59:46;;;;;;;4.35;2.65;;;18.30;99.90;;;;;;1894452;75;21560;-78
2022/04/28 10:02:40;;;;;;;3.50;2.70;;;18.40;99.90;;;;;;1853967;77;21095;-78
2022/04/28 10:08:32;;;;;;;5.55;3.10;;;18.50;99.90;;;;;;1947276;72;22407;-78
2022/04/28 10:11:45;;;;;;;6.80;3.90;;;18.50;99.90;;;;;;1906501;75;21092;-79
2022/04/28 10:17:40;;;;;;;7.42;3.45;;;18.80;99.90;;;;;;1934638;72;22325;-78
2022/04/28 10:34:13;;;;;;;6.35;3.80;;;19.20;99.90;;;;;;1893884;75;21084;-79
2022/04/28 10:37:26;;;;;;;6.35;3.80;;;19.20;99.90;;;;;;1884659;76;21101;-79
2022/04/28 10:42:59;;;;;;;4.20;3.47;;;19.40;99.90;;;;;;1961557;72;22182;-78
2022/04/28 10:46:31;;;;;;;6.83;3.20;;;19.40;99.90;;;;;;1919023;73;21092;-79
2022/04/28 10:49:43;;;;;;;6.03;3.50;;;19.40;99.90;;;;;;1917675;75;21047;-79
2022/04/28 10:52:35;;;;;;;6.17;3.50;;;19.50;99.90;;;;;;1918597;73;21222;-79
2022/04/28 10:58:25;;;;;;;4.87;3.00;;;19.50;99.90;;;;;;1949413;72;22208;-78
2022/04/28 11:04:16;;;;;;;6.20;3.22;;;19.70;99.90;;;;;;1955024;72;22111;-78
2022/04/28 11:07:32;;;;;;;3.67;2.87;;;19.60;99.90;;;;;;1900129;75;21527;-79
2022/04/28 11:13:56;;;;;;;2.72;2.40;;;19.70;99.90;;;;;;1955704;72;22086;-78
2022/04/28 11:17:06;;;;;;;2.35;1.90;;;19.70;99.90;;;;;;1908708;75;21062;-79
2022/04/28 11:20:21;;;;;;;3.72;2.30;;;19.60;99.90;;;;;;1898093;75;21160;-80
2022/04/28 11:23:21;;;;;;;2.10;1.90;;;19.70;99.90;;;;;;1906998;75;21078;-80
2022/04/28 11:26:33;;;;;;;2.45;1.92;;;19.70;99.90;;;;;;1906895;75;21511;-79
2022/04/28 11:29:31;;;;;;;3.98;2.22;;;19.90;99.90;;;;;;1906651;75;21113;-79
2022/04/28 11:32:22;;;;;;;5.17;2.15;;;20.00;99.90;;;;;;1907494;75;21162;-79
2022/04/28 11:35:14;;;;;;;4.10;2.10;;;20.10;99.90;;;;;;1898519;75;21098;-79
2022/04/28 11:38:06;;;;;;;5.55;2.02;;;20.20;99.90;;;;;;1898883;75;21534;-79
2022/04/28 11:43:42;;;;;;;3.17;1.87;;;20.40;99.90;;;;;;1950020;72;22543;-79
2022/04/28 11:46:53;;;;;;;4.00;2.20;;;20.60;99.90;;;;;;1918414;73;21121;-78
2022/04/28 11:53:04;;;;;;;4.00;1.77;;;20.70;99.90;;;;;;1955227;72;22067;-79
2022/04/28 11:59:05;;;;;;;4.22;1.80;;;20.90;99.90;;;;;;1955134;72;22083;-79
2022/04/28 12:02:28;;;;;;;4.22;2.22;;;21.10;99.90;;;;;;1906808;75;21545;-79
2022/04/28 12:05:39;;;;;;;2.45;2.12;;;21.20;99.90;;;;;;1887377;75;21569;-80
2022/04/28 12:08:33;;;;;;;4.17;2.10;;;21.40;99.90;;;;;;1884527;76;21113;-79
2022/04/28 12:43:57;;;;;;;2.08;1.87;;;22.10;99.90;;;;;;1975996;72;22265;-79
2022/04/28 12:49:48;;;;;;;2.75;1.90;;;22.60;99.90;;;;;;1955446;72;22668;-79
2022/04/28 12:52:58;;;;;;;2.22;1.70;;;22.40;99.90;;;;;;1951379;73;21163;-79
2022/04/28 12:58:58;;;;;;;2.70;1.87;;;22.70;99.90;;;;;;1956232;72;22107;-79
2022/04/28 13:02:08;;;;;;;2.25;1.67;;;22.70;99.90;;;;;;1915496;75;21067;-79
2022/04/28 13:05:20;;;;;;;2.42;1.70;;;22.70;99.90;;;;;;1909832;75;21087;-79
2022/04/28 13:08:14;;;;;;;6.75;2.00;;;22.80;99.90;;;;;;1889891;75;21590;-79
2022/04/28 13:11:26;;;;;;;3.58;1.75;;;22.90;99.90;;;;;;1911587;75;21047;-80
2022/04/28 13:14:20;;;;;;;6.95;2.00;;;23.00;99.90;;;;;;1895136;75;21826;-81
2022/04/28 13:17:11;;;;;;;5.70;1.70;;;23.20;99.90;;;;;;1899975;75;21058;-81
2022/04/28 13:20:03;;;;;;;3.27;2.20;;;23.00;99.90;;;;;;1897605;75;21599;-79
2022/04/28 13:22:55;;;;;;;3.22;1.90;;;23.20;99.90;;;;;;1887576;75;21074;-79
2022/04/28 13:25:46;;;;;;;3.47;1.52;;;23.20;99.90;;;;;;1884663;75;21164;-79
2022/04/28 13:28:39;;;;;;;3.10;1.67;;;23.30;99.90;;;;;;1904496;75;21109;-80
2022/04/28 13:31:31;;;;;;;3.47;1.80;;;23.40;99.90;;;;;;1899298;75;21171;-80
2022/04/28 13:34:22;;;;;;;2.33;1.85;;;23.50;99.60;;;;;;1893787;75;21124;-80
2022/04/28 13:37:14;;;;;;;2.17;1.72;;;23.60;99.20;;;;;;1895559;75;21080;-80
2022/04/28 13:40:08;;;;;;;2.60;1.60;;;23.60;98.90;;;;;;1917684;75;21120;-80
2022/04/28 13:42:59;;;;;;;3.42;1.80;;;23.70;99.20;;;;;;1902659;75;21188;-80
2022/04/28 13:45:51;;;;;;;3.98;1.80;;;23.70;97.80;;;;;;1906524;75;21112;-80
2022/04/28 13:48:43;;;;;;;3.17;1.70;;;23.70;97.30;;;;;;1906596;75;21191;-80
2022/04/28 13:51:34;;;;;;;4.78;1.65;;;23.70;96.20;;;;;;1906853;75;21101;-80
2022/04/28 13:54:26;;;;;;;1.98;1.52;;;23.90;97.00;;;;;;1901523;75;21156;-80
2022/04/28 13:57:17;;;;;;;3.12;1.65;;;24.10;95.60;;;;;;1896306;75;21066;-80
2022/04/28 14:00:12;;;;;;;2.65;1.67;;;24.40;94.00;;;;;;1895862;75;21054;-79
2022/04/28 14:03:03;;;;;;;2.25;1.40;;;24.70;92.80;;;;;;1893600;75;21121;-80
2022/04/28 14:05:57;;;;;;;1.90;1.20;;;24.80;92.30;;;;;;1884642;76;21103;-80
2022/04/28 14:08:49;;;;;;;2.42;1.40;;;25.20;90.40;;;;;;1898205;75;21546;-80
2022/04/28 14:11:40;;;;;;;2.00;1.30;;;25.30;87.00;;;;;;1895049;75;21181;-80
2022/04/28 14:14:32;;;;;;;1.35;1.20;;;25.50;83.10;;;;;;1894507;75;21205;-80
2022/04/28 14:17:24;;;;;;;1.57;0.95;;;25.20;80.20;;;;;;1896552;75;21054;-81
2022/04/28 14:20:16;;;;;;;2.65;1.10;;;25.60;75.20;;;;;;1899305;75;21112;-80
2022/04/28 14:23:08;;;;;;;3.15;1.37;;;25.50;73.20;;;;;;1906624;75;21055;-80
2022/04/28 14:25:59;;;;;;;3.55;1.07;;;25.70;70.70;;;;;;1906390;75;21099;-80
2022/04/28 14:28:51;;;;;;;2.27;1.10;;;25.90;68.50;;;;;;1906274;75;21521;-80
2022/04/28 14:31:43;;;;;;;3.25;1.50;;;26.20;67.10;;;;;;1900916;75;21055;-80
2022/04/28 14:34:39;;;;;;;1.85;1.22;;;26.30;65.60;;;;;;1906318;75;21201;-80
2022/04/28 14:37:31;;;;;;;4.10;1.15;;;26.30;63.50;;;;;;1906180;75;21177;-80
2022/04/28 14:40:22;;;;;;;2.08;1.20;;;26.30;62.10;;;;;;1907042;75;21533;-80
2022/04/28 14:43:14;;;;;;;1.65;1.20;;;26.50;60.70;;;;;;1899849;75;21094;-80
2022/04/28 14:46:05;;;;;;;2.17;1.10;;;26.50;60.00;;;;;;1895514;75;21055;-80
2022/04/28 14:52:23;;;;;;;1.80;0.90;;;26.90;58.80;;;;;;1911992;75;21071;-80
2022/04/28 14:55:15;;;;;;;1.20;1.10;;;26.90;57.50;;;;;;1905865;75;21047;-80
2022/04/28 14:58:07;;;;;;;2.08;1.45;;;26.60;56.10;;;;;;1883835;75;21170;-80
2022/04/28 15:00:58;;;;;;;1.35;1.00;;;27.00;56.00;;;;;;1883780;76;21159;-80
2022/04/28 15:03:51;;;;;;;1.00;0.90;;;27.00;55.70;;;;;;1916445;75;21420;-80
2022/04/28 15:06:43;;;;;;;2.95;1.10;;;27.40;54.10;;;;;;1894560;75;21094;-80
2022/04/28 15:09:37;;;;;;;2.27;1.15;;;27.30;55.10;;;;;;1894947;75;21092;-80
2022/04/28 15:12:29;;;;;;;1.72;1.05;;;27.60;53.80;;;;;;1899296;75;21062;-80
2022/04/28 15:15:21;;;;;;;2.58;1.40;;;27.70;52.00;;;;;;1896542;75;21098;-80
2022/04/28 15:18:23;;;;;;;2.35;1.22;;;27.50;52.70;;;;;;1894837;75;21123;-80
2022/04/28 15:21:15;;;;;;;2.65;1.05;;;27.50;53.00;;;;;;1858507;77;21652;-80
2022/04/28 15:24:09;;;;;;;2.47;1.20;;;27.90;52.70;;;;;;1838251;77;21124;-80
2022/04/28 15:27:00;;;;;;;2.83;1.00;;;27.70;52.80;;;;;;1846020;77;21160;-80
2022/04/28 15:29:52;;;;;;;2.60;1.02;;;27.80;52.80;;;;;;1861574;77;21149;-80
2022/04/28 15:32:45;;;;;;;3.05;1.30;;;27.40;53.50;;;;;;1821166;78;21478;-80
2022/04/28 15:35:37;;;;;;;2.10;1.10;;;27.80;54.20;;;;;;1859474;77;21078;-80
2022/04/28 15:38:30;;;;;;;1.25;1.00;;;27.90;52.40;;;;;;1863738;77;21614;-81
2022/04/28 15:41:22;;;;;;;0.90;0.90;;;27.80;52.20;;;;;;1861205;77;21297;-80
2022/04/28 15:44:14;;;;;;;3.22;1.37;;;28.00;51.90;;;;;;1861563;77;21075;-81
2022/04/28 15:47:06;;;;;;;1.42;1.00;;;27.90;50.20;;;;;;1820443;78;21153;-80
2022/04/28 15:49:57;;;;;;;2.87;1.17;;;28.40;50.90;;;;;;1856171;77;21145;-80
2022/04/28 15:52:49;;;;;;;2.10;1.27;;;28.60;50.70;;;;;;1807578;79;21564;-80
2022/04/28 15:55:42;;;;;;;3.60;1.10;;;28.30;49.30;;;;;;1824463;78;21140;-80
2022/04/28 15:58:34;;;;;;;1.30;0.90;;;28.30;49.80;;;;;;1817461;79;21073;-80
2022/04/28 16:01:25;;;;;;;2.40;0.95;;;28.40;48.80;;;;;;1823494;78;21171;-80
2022/04/28 16:04:17;;;;;;;1.45;0.90;;;28.20;47.40;;;;;;1823527;78;21151;-81
2022/04/28 16:07:09;;;;;;;5.22;1.20;;;28.60;48.60;;;;;;1842516;77;21526;-81
2022/04/28 16:10:01;;;;;;;5.22;1.50;;;28.00;49.60;;;;;;1825592;78;21175;-80
2022/04/28 16:12:52;;;;;;;2.27;1.20;;;28.40;49.70;;;;;;1859336;77;21067;-80
2022/04/28 16:15:44;;;;;;;2.67;1.07;;;28.70;49.40;;;;;;1860145;77;21071;-80
2022/04/28 16:18:36;;;;;;;2.60;0.95;;;29.00;47.50;;;;;;1840750;77;21666;-80
2022/04/28 16:21:29;;;;;;;3.22;1.10;;;28.70;48.70;;;;;;1838758;77;21596;-80
2022/04/28 16:24:20;;;;;;;2.87;1.05;;;28.70;47.70;;;;;;1834283;77;21077;-80
2022/04/28 16:27:12;;;;;;;4.90;1.10;;;28.90;47.80;;;;;;1859832;77;21073;-80
2022/04/28 16:30:05;;;;;;;2.75;1.20;;;29.20;48.00;;;;;;1837044;77;21551;-81
2022/04/28 16:32:57;;;;;;;1.85;1.10;;;29.10;48.00;;;;;;1863594;77;21056;-81
2022/04/28 16:35:49;;;;;;;2.05;1.02;;;29.00;48.70;;;;;;1860429;77;21254;-80
2022/04/28 16:38:41;;;;;;;1.47;1.22;;;29.10;49.00;;;;;;1808853;79;21101;-80
2022/04/28 16:41:33;;;;;;;2.65;1.42;;;28.80;49.30;;;;;;1860615;77;21112;-80
2022/04/28 16:44:25;;;;;;;1.20;1.00;;;28.80;49.90;;;;;;1801213;79;21210;-80
2022/04/28 16:47:16;;;;;;;1.17;0.93;;;28.60;49.00;;;;;;1816600;79;21118;-80
2022/04/28 16:50:10;;;;;;;2.72;1.02;;;28.60;48.90;;;;;;1816363;79;21152;-81
2022/04/28 16:53:03;;;;;;;1.82;1.20;;;28.20;49.20;;;;;;1817658;79;21086;-80
2022/04/28 16:55:54;;;;;;;4.62;1.00;;;28.10;49.50;;;;;;1800236;79;21074;-80
2022/04/28 16:58:46;;;;;;;2.65;1.10;;;28.00;50.10;;;;;;1819216;79;21165;-79
2022/04/28 17:01:38;;;;;;;2.50;1.15;;;27.60;50.70;;;;;;1819383;79;21086;-80
2022/04/28 17:04:31;;;;;;;3.02;1.15;;;27.40;51.50;;;;;;1857455;77;21081;-79
2022/04/28 17:07:23;;;;;;;3.12;1.10;;;27.10;52.00;;;;;;1864329;77;21159;-80
2022/04/28 17:10:15;;;;;;;3.67;1.40;;;27.00;52.10;;;;;;1820729;79;21177;-80
2022/04/28 17:13:07;;;;;;;1.72;1.07;;;26.90;52.60;;;;;;1820111;79;21150;-79
2022/04/28 17:15:59;;;;;;;1.82;1.30;;;26.50;53.40;;;;;;1815121;79;21078;-80
2022/04/28 17:18:50;;;;;;;2.40;1.37;;;25.90;54.70;;;;;;1844834;77;21227;-79
2022/04/28 17:21:45;;;;;;;2.95;1.35;;;26.00;55.30;;;;;;1859912;77;21081;-81
2022/04/28 17:24:40;;;;;;;1.20;1.10;;;25.90;55.90;;;;;;1857588;77;21168;-80
2022/04/28 17:27:33;;;;;;;4.42;1.40;;;25.80;56.40;;;;;;1833170;77;21551;-80
2022/04/28 17:30:27;;;;;;;1.70;1.22;;;25.60;56.70;;;;;;1860222;77;21188;-80
2022/04/28 17:33:19;;;;;;;2.35;1.40;;;25.50;57.20;;;;;;1826263;78;21084;-80
2022/04/28 17:36:13;;;;;;;2.10;1.60;;;25.50;57.40;;;;;;1836812;77;21074;-80
2022/04/28 17:39:08;;;;;;;4.20;1.60;;;25.40;58.30;;;;;;1853899;77;21125;-80
2022/04/28 17:42:04;;;;;;;3.25;1.50;;;25.20;59.00;;;;;;1838479;77;21652;-80
2022/04/28 17:44:57;;;;;;;2.35;1.40;;;24.60;60.20;;;;;;1814578;79;21202;-80
2022/04/28 17:47:54;;;;;;;5.95;1.57;;;23.90;62.40;;;;;;1861054;77;21075;-80
2022/04/28 17:50:47;;;;;;;2.92;1.50;;;23.70;63.20;;;;;;1837845;78;21208;-80
2022/04/28 17:53:39;;;;;;;2.47;1.72;;;23.50;63.90;;;;;;1858609;77;21090;-79
2022/04/28 17:59:54;;;;;;;2.27;1.50;;;23.20;65.70;;;;;;1833369;78;21583;-80
2022/04/28 18:02:48;;;;;;;6.78;1.50;;;23.10;66.20;;;;;;1847132;77;21526;-80
2022/04/28 18:05:45;;;;;;;1.85;1.50;;;22.90;66.80;;;;;;1859298;77;21099;-80
2022/04/28 18:08:40;;;;;;;2.33;1.60;;;22.80;67.70;;;;;;1815205;78;21148;-79
2022/04/28 18:11:34;;;;;;;3.83;1.60;;;22.70;68.30;;;;;;1824793;78;21118;-80
2022/04/28 18:14:27;;;;;;;2.55;1.42;;;22.70;68.70;;;;;;1854533;77;21157;-80
2022/04/28 18:20:01;;;;;;;2.67;1.65;;;22.30;70.80;;;;;;1943834;72;22631;-79
2022/04/28 18:23:13;;;;;;;2.55;1.70;;;22.30;71.60;;;;;;1903592;75;21278;-79
2022/04/28 18:26:22;;;;;;;3.67;1.77;;;22.30;73.20;;;;;;1894318;75;21088;-79
2022/04/28 18:29:14;;;;;;;2.45;1.40;;;22.20;73.50;;;;;;1872936;75;21125;-79
2022/04/28 18:32:24;;;;;;;2.75;1.57;;;22.10;74.80;;;;;;1894188;75;21105;-79
2022/04/28 18:35:16;;;;;;;1.80;1.57;;;22.10;76.50;;;;;;1891946;75;21095;-79
2022/04/28 18:47:23;;;;;;;3.75;1.90;;;21.90;80.70;;;;;;1920306;73;21103;-80
2022/04/28 18:50:33;;;;;;;4.33;1.77;;;21.80;82.00;;;;;;1922054;73;21505;-79
2022/04/28 18:53:26;;;;;;;2.40;1.70;;;21.80;83.50;;;;;;1917798;75;21067;-79
2022/04/28 18:56:37;;;;;;;2.17;1.95;;;21.70;85.00;;;;;;1913622;73;21059;-79